createdAt,value
2023-12-05T00:01:53.600Z,99.90
2023-12-05T00:04:20.202Z,100.00
2023-12-05T00:06:46.880Z,99.95
2023-12-05T00:09:13.444Z,100.00
2023-12-05T00:11:41.715Z,99.90
2023-12-05T00:14:08.244Z,100.00
2023-12-05T00:16:34.657Z,100.00
2023-12-05T00:19:01.035Z,100.00
2023-12-05T00:21:27.668Z,99.89
2023-12-05T00:23:54.111Z,99.87
2023-12-05T00:26:20.549Z,100.00
2023-12-05T00:28:46.839Z,99.96
2023-12-05T00:31:13.238Z,99.95
2023-12-05T00:33:39.668Z,99.72
2023-12-05T00:36:06.380Z,99.70
2023-12-05T00:38:32.868Z,99.85
2023-12-05T00:41:01.846Z,99.73
2023-12-05T00:43:28.322Z,99.97
2023-12-05T00:45:56.631Z,99.76
2023-12-05T00:48:23.698Z,100.00
2023-12-05T00:50:51.099Z,99.97
2023-12-05T00:53:17.672Z,100.00
2023-12-05T00:55:44.158Z,99.94
2023-12-05T00:58:10.596Z,99.79
2023-12-05T01:00:37.007Z,99.81
2023-12-05T01:03:03.551Z,99.78
2023-12-05T01:05:30.377Z,99.97
2023-12-05T01:07:57.008Z,99.92
2023-12-05T01:10:23.733Z,100.00
2023-12-05T01:12:50.218Z,99.64
2023-12-05T01:15:17.138Z,99.92
2023-12-05T01:17:43.661Z,99.78
2023-12-05T01:20:12.724Z,100.00
2023-12-05T01:22:40.027Z,100.00
2023-12-05T01:25:08.660Z,100.00
2023-12-05T01:27:35.351Z,100.00
2023-12-05T01:30:02.173Z,100.00
2023-12-05T01:32:28.660Z,100.00
2023-12-05T01:34:55.008Z,100.00
2023-12-05T01:37:21.635Z,100.00
2023-12-05T01:39:48.102Z,100.00
2023-12-05T01:42:14.570Z,100.00
2023-12-05T01:44:40.970Z,100.00
2023-12-05T01:47:07.337Z,100.00
2023-12-05T01:49:37.034Z,100.00
2023-12-05T01:52:04.292Z,100.00
2023-12-05T01:54:32.703Z,100.00
2023-12-05T01:57:00.806Z,100.00
2023-12-05T01:59:27.792Z,100.00
2023-12-05T02:01:55.453Z,100.00
2023-12-05T02:04:22.445Z,100.00
2023-12-05T02:06:50.785Z,100.00
2023-12-05T02:09:17.957Z,100.00
2023-12-05T02:11:44.951Z,100.00
2023-12-05T02:14:13.067Z,100.00
2023-12-05T02:16:49.751Z,100.00
2023-12-05T02:19:40.923Z,100.00
2023-12-05T02:22:27.824Z,100.00
2023-12-05T02:25:10.525Z,100.00
2023-12-05T02:27:43.623Z,100.00
2023-12-05T02:30:11.230Z,100.00
2023-12-05T02:32:37.830Z,100.00
2023-12-05T02:35:06.535Z,100.00
2023-12-05T02:37:49.017Z,100.00
2023-12-05T02:40:30.092Z,100.00
2023-12-05T02:42:58.160Z,100.00
2023-12-05T02:45:29.756Z,100.00
2023-12-05T02:47:57.423Z,100.00
2023-12-05T02:50:24.384Z,100.00
2023-12-05T02:52:50.954Z,100.00
2023-12-05T02:55:17.456Z,100.00
2023-12-05T02:57:44.160Z,100.00
2023-12-05T03:00:11.313Z,100.00
2023-12-05T03:02:37.694Z,100.00
2023-12-05T03:05:04.370Z,100.00
2023-12-05T03:07:30.906Z,100.00
2023-12-05T03:09:57.360Z,100.00
2023-12-05T03:12:23.983Z,100.00
2023-12-05T03:14:50.388Z,100.00
2023-12-05T03:17:16.826Z,100.00
2023-12-05T03:19:43.356Z,100.00
2023-12-05T03:22:09.841Z,100.00
2023-12-05T03:24:36.473Z,100.00
2023-12-05T03:27:03.607Z,100.00
2023-12-05T03:29:30.067Z,100.00
2023-12-05T03:31:56.521Z,100.00
2023-12-05T03:34:23.049Z,100.00
2023-12-05T03:36:49.526Z,100.00
2023-12-05T03:39:16.098Z,100.00
2023-12-05T03:41:44.470Z,100.00
2023-12-05T03:44:10.941Z,100.00
2023-12-05T03:46:37.269Z,100.00
2023-12-05T03:49:03.869Z,99.99
2023-12-05T03:51:31.263Z,99.91
2023-12-05T03:53:57.798Z,99.91
2023-12-05T03:56:24.162Z,100.00
2023-12-05T03:58:52.492Z,99.98
2023-12-05T04:01:18.923Z,100.00
2023-12-05T04:03:45.403Z,100.00
2023-12-05T04:06:24.011Z,100.00
2023-12-05T04:08:51.601Z,100.00
2023-12-05T04:11:18.524Z,100.00
2023-12-05T04:13:44.954Z,100.00
2023-12-05T04:16:11.421Z,100.00
2023-12-05T04:18:37.880Z,99.96
2023-12-05T04:21:04.839Z,100.00
2023-12-05T04:23:31.294Z,100.00
2023-12-05T04:25:57.772Z,100.00
2023-12-05T04:28:24.126Z,100.00
2023-12-05T04:30:50.522Z,100.00
2023-12-05T04:33:17.113Z,99.99
2023-12-05T04:35:43.648Z,99.98
2023-12-05T04:38:10.084Z,100.00
2023-12-05T04:40:36.498Z,100.00
2023-12-05T04:43:02.846Z,100.00
2023-12-05T04:45:30.853Z,100.00
2023-12-05T04:47:57.420Z,100.00
2023-12-05T04:50:23.956Z,100.00
2023-12-05T04:52:50.308Z,100.00
2023-12-05T04:55:16.780Z,100.00
2023-12-05T04:57:43.377Z,100.00
2023-12-05T05:00:12.439Z,100.00
2023-12-05T05:02:39.236Z,99.91
2023-12-05T05:05:06.148Z,100.00
2023-12-05T05:07:34.352Z,100.00
2023-12-05T05:10:00.819Z,99.97
2023-12-05T05:12:28.377Z,100.00
2023-12-05T05:14:54.814Z,99.94
2023-12-05T05:17:21.982Z,99.98
2023-12-05T05:19:48.775Z,99.86
2023-12-05T05:22:15.485Z,99.92
2023-12-05T05:24:42.056Z,99.83
2023-12-05T05:27:08.818Z,99.92
2023-12-05T05:29:35.252Z,99.87
2023-12-05T05:32:01.622Z,99.83
2023-12-05T05:34:28.068Z,99.88
2023-12-05T05:36:54.543Z,100.00
2023-12-05T05:39:21.738Z,99.95
2023-12-05T05:41:48.216Z,99.74
2023-12-05T05:44:14.638Z,99.90
2023-12-05T05:46:40.981Z,99.87
2023-12-05T05:49:07.690Z,99.71
2023-12-05T05:51:34.306Z,99.90
2023-12-05T05:54:00.819Z,99.95
2023-12-05T05:56:27.370Z,99.97
2023-12-05T05:58:53.801Z,100.00
2023-12-05T06:01:20.307Z,100.00
2023-12-05T06:03:46.830Z,100.00
2023-12-05T06:06:13.397Z,100.00
2023-12-05T06:08:39.910Z,100.00
2023-12-05T06:11:06.733Z,100.00
2023-12-05T06:13:33.175Z,100.00
2023-12-05T06:15:59.801Z,100.00
2023-12-05T06:18:26.298Z,100.00
2023-12-05T06:20:53.823Z,100.00
2023-12-05T06:23:20.254Z,100.00
2023-12-05T06:25:46.981Z,100.00
2023-12-05T06:28:13.509Z,100.00
2023-12-05T06:30:39.955Z,100.00
2023-12-05T06:33:06.471Z,99.91
2023-12-05T06:35:33.417Z,99.93
2023-12-05T06:37:59.725Z,100.00
2023-12-05T06:40:26.157Z,100.00
2023-12-05T06:42:52.609Z,100.00
2023-12-05T06:45:19.007Z,99.92
2023-12-05T06:47:46.131Z,99.92
2023-12-05T06:50:13.123Z,99.81
2023-12-05T06:52:41.332Z,99.93
2023-12-05T06:55:09.269Z,99.92
2023-12-05T06:57:35.817Z,99.86
2023-12-05T07:00:03.768Z,99.91
2023-12-05T07:02:30.715Z,99.96
2023-12-05T07:04:58.941Z,99.88
2023-12-05T07:07:26.122Z,99.71
2023-12-05T07:09:52.616Z,99.60
2023-12-05T07:12:20.235Z,99.53
2023-12-05T07:14:46.706Z,99.57
2023-12-05T07:17:13.226Z,99.45
2023-12-05T07:19:39.940Z,99.43
2023-12-05T07:22:06.470Z,99.48
2023-12-05T07:24:32.892Z,99.27
2023-12-05T07:26:59.363Z,99.20
2023-12-05T07:29:26.120Z,99.23
2023-12-05T07:31:52.616Z,99.17
2023-12-05T07:34:19.006Z,99.24
2023-12-05T07:36:45.405Z,99.39
2023-12-05T07:39:13.801Z,99.28
2023-12-05T07:41:41.356Z,99.20
2023-12-05T07:44:08.243Z,99.19
2023-12-05T07:46:34.964Z,99.13
2023-12-05T07:49:03.689Z,99.14
2023-12-05T07:51:30.612Z,99.08
2023-12-05T07:53:57.093Z,99.08
2023-12-05T07:56:23.595Z,99.32
2023-12-05T07:58:50.021Z,99.15
2023-12-05T08:01:16.506Z,99.08
2023-12-05T08:03:43.036Z,99.11
2023-12-05T08:06:10.033Z,99.12
2023-12-05T08:08:36.669Z,99.16
2023-12-05T08:11:03.825Z,99.01
2023-12-05T08:13:30.547Z,98.97
2023-12-05T08:15:57.143Z,98.84
2023-12-05T08:18:23.817Z,98.33
2023-12-05T08:20:51.010Z,98.63
2023-12-05T08:23:17.518Z,98.54
2023-12-05T08:25:43.927Z,98.42
2023-12-05T08:28:10.335Z,98.33
2023-12-05T08:30:36.964Z,98.37
2023-12-05T08:33:03.650Z,98.46
2023-12-05T08:35:30.110Z,98.33
2023-12-05T08:37:56.441Z,98.32
2023-12-05T08:40:23.025Z,98.27
2023-12-05T08:42:49.837Z,98.39
2023-12-05T08:45:16.427Z,98.24
2023-12-05T08:47:42.880Z,98.34
2023-12-05T08:50:09.431Z,98.66
2023-12-05T08:52:35.898Z,98.63
2023-12-05T08:55:02.606Z,98.55
2023-12-05T08:57:29.063Z,98.32
2023-12-05T08:59:55.501Z,98.46
2023-12-05T09:02:21.834Z,98.30
2023-12-05T09:04:48.557Z,98.60
2023-12-05T09:07:15.944Z,98.46
2023-12-05T09:09:42.671Z,98.32
2023-12-05T09:12:09.633Z,98.14
2023-12-05T09:14:36.492Z,97.99
2023-12-05T09:17:04.381Z,98.37
2023-12-05T09:19:31.542Z,98.02
2023-12-05T09:21:58.070Z,97.87
2023-12-05T09:24:25.816Z,97.86
2023-12-05T09:26:52.287Z,97.78
2023-12-05T09:29:18.912Z,97.52
2023-12-05T09:31:45.682Z,97.65
2023-12-05T09:34:12.105Z,97.80
2023-12-05T09:36:38.779Z,97.73
2023-12-05T09:39:06.565Z,97.54
2023-12-05T09:41:41.944Z,97.44
2023-12-05T09:44:09.713Z,97.54
2023-12-05T09:46:44.754Z,97.47
2023-12-05T09:49:18.360Z,97.19
2023-12-05T09:51:46.200Z,97.42
2023-12-05T09:54:15.021Z,97.36
2023-12-05T09:56:41.884Z,96.77
2023-12-05T09:59:11.299Z,96.46
2023-12-05T10:01:40.658Z,96.41
2023-12-05T10:04:12.280Z,96.50
2023-12-05T10:06:40.660Z,96.34
2023-12-05T10:09:10.768Z,96.42
2023-12-05T10:11:38.789Z,96.45
2023-12-05T10:14:05.224Z,96.46
2023-12-05T10:16:32.794Z,96.48
2023-12-05T10:19:00.092Z,96.32
2023-12-05T10:21:26.898Z,95.85
2023-12-05T10:23:53.678Z,96.13
2023-12-05T10:26:20.101Z,95.95
2023-12-05T10:28:52.039Z,95.87
2023-12-05T10:31:21.340Z,95.74
2023-12-05T10:33:51.508Z,96.12
2023-12-05T10:36:18.417Z,95.97
2023-12-05T10:38:46.805Z,95.75
2023-12-05T10:41:22.869Z,95.45
2023-12-05T10:43:50.423Z,95.32
2023-12-05T10:46:17.594Z,95.75
2023-12-05T10:48:45.373Z,95.97
2023-12-05T10:51:11.840Z,95.88
2023-12-05T10:53:40.049Z,96.22
2023-12-05T10:56:13.598Z,96.19
2023-12-05T10:58:43.878Z,96.26
2023-12-05T11:01:11.481Z,96.17
2023-12-05T11:03:40.064Z,96.08
2023-12-05T11:06:10.180Z,96.21
2023-12-05T11:08:37.595Z,95.99
2023-12-05T11:11:05.512Z,95.86
2023-12-05T11:13:34.720Z,95.76
2023-12-05T11:16:10.115Z,95.73
2023-12-05T11:18:41.154Z,95.81
2023-12-05T11:21:26.008Z,95.76
2023-12-05T11:24:18.926Z,95.42
2023-12-05T11:27:13.296Z,95.64
2023-12-05T11:30:12.099Z,95.72
2023-12-05T11:33:08.018Z,95.84
2023-12-05T11:36:13.161Z,96.07
2023-12-05T11:38:40.387Z,96.15
2023-12-05T11:41:21.825Z,96.08
2023-12-05T11:44:12.791Z,96.08
2023-12-05T11:46:46.050Z,95.91
2023-12-05T11:49:12.558Z,95.70
2023-12-05T11:51:39.109Z,95.78
2023-12-05T11:54:08.520Z,95.66
2023-12-05T11:56:35.182Z,96.04
2023-12-05T11:59:19.773Z,96.14
2023-12-05T12:01:46.467Z,96.17
2023-12-05T12:04:23.641Z,96.05
2023-12-05T12:06:51.192Z,95.73
2023-12-05T12:09:17.755Z,95.80
2023-12-05T12:11:44.451Z,95.56
2023-12-05T12:14:20.707Z,95.65
2023-12-05T12:16:56.979Z,95.86
2023-12-05T12:19:23.642Z,95.52
2023-12-05T12:21:51.170Z,95.63
2023-12-05T12:24:23.474Z,95.82
2023-12-05T12:26:58.377Z,96.00
2023-12-05T12:29:25.995Z,96.05
2023-12-05T12:32:04.621Z,95.93
2023-12-05T12:34:31.686Z,96.06
2023-12-05T12:37:04.859Z,96.17
2023-12-05T12:39:36.059Z,96.07
2023-12-05T12:42:02.915Z,96.01
2023-12-05T12:44:30.787Z,95.78
2023-12-05T12:46:57.893Z,95.72
2023-12-05T12:49:26.847Z,95.70
2023-12-05T12:51:55.004Z,95.97
2023-12-05T12:54:22.052Z,96.08
2023-12-05T12:56:49.006Z,95.63
2023-12-05T12:59:16.604Z,95.69
2023-12-05T13:01:45.014Z,95.93
2023-12-05T13:04:13.436Z,95.81
2023-12-05T13:06:46.175Z,95.86
2023-12-05T13:09:15.988Z,95.38
2023-12-05T13:11:43.687Z,95.45
2023-12-05T13:14:15.216Z,95.21
2023-12-05T13:16:42.967Z,95.32
2023-12-05T13:19:31.713Z,95.19
2023-12-05T13:21:58.529Z,95.33
2023-12-05T13:24:25.149Z,95.32
2023-12-05T13:26:52.876Z,95.51
2023-12-05T13:29:20.196Z,95.65
2023-12-05T13:31:46.807Z,95.99
2023-12-05T13:34:13.382Z,95.96
2023-12-05T13:36:40.025Z,95.88
2023-12-05T13:39:11.045Z,95.67
2023-12-05T13:41:39.071Z,95.77
2023-12-05T13:44:05.567Z,95.65
2023-12-05T13:46:32.861Z,95.67
2023-12-05T13:49:05.347Z,95.62
2023-12-05T13:51:32.784Z,95.85
2023-12-05T13:54:01.006Z,95.92
2023-12-05T13:56:28.488Z,95.85
2023-12-05T13:58:56.042Z,95.53
2023-12-05T14:01:22.694Z,95.36
2023-12-05T14:03:49.506Z,95.47
2023-12-05T14:06:16.245Z,95.44
2023-12-05T14:08:42.895Z,95.44
2023-12-05T14:11:09.359Z,95.33
2023-12-05T14:13:35.929Z,95.14
2023-12-05T14:16:02.708Z,95.24
2023-12-05T14:18:29.190Z,95.13
2023-12-05T14:20:58.453Z,95.13
2023-12-05T14:23:26.945Z,94.54
2023-12-05T14:25:53.469Z,94.37
2023-12-05T14:28:19.941Z,93.91
2023-12-05T14:30:46.623Z,94.44
2023-12-05T14:33:13.260Z,94.06
2023-12-05T14:35:40.301Z,94.80
2023-12-05T14:38:06.739Z,94.48
2023-12-05T14:40:33.217Z,94.39
2023-12-05T14:43:00.773Z,94.36
2023-12-05T14:45:27.512Z,94.72
2023-12-05T14:47:54.048Z,94.60
2023-12-05T14:50:20.592Z,94.70
2023-12-05T14:52:46.993Z,94.60
2023-12-05T14:55:13.301Z,94.83
2023-12-05T14:57:39.816Z,94.98
2023-12-05T15:00:08.281Z,95.00
2023-12-05T15:02:40.402Z,95.30
2023-12-05T15:05:08.754Z,95.16
2023-12-05T15:07:35.346Z,95.15
2023-12-05T15:10:02.280Z,95.23
2023-12-05T15:12:28.779Z,95.31
2023-12-05T15:14:55.198Z,95.35
2023-12-05T15:17:22.135Z,95.28
2023-12-05T15:20:17.882Z,94.98
2023-12-05T15:22:35.025Z,94.92
2023-12-05T15:25:01.510Z,95.19
2023-12-05T15:27:28.393Z,95.47
2023-12-05T15:29:57.034Z,95.27
2023-12-05T15:32:27.656Z,95.01
2023-12-05T15:34:54.416Z,95.23
2023-12-05T15:37:21.611Z,95.39
2023-12-05T15:39:48.266Z,95.31
2023-12-05T15:42:14.755Z,95.20
2023-12-05T15:44:41.241Z,95.05
2023-12-05T15:47:07.655Z,95.44
2023-12-05T15:49:34.920Z,95.58
2023-12-05T15:52:01.435Z,95.42
2023-12-05T15:54:28.180Z,95.50
2023-12-05T15:56:55.042Z,95.33
2023-12-05T15:59:21.547Z,95.50
2023-12-05T16:01:48.198Z,95.17
2023-12-05T16:04:14.740Z,95.05
2023-12-05T16:06:45.834Z,95.17
2023-12-05T16:09:13.928Z,95.29
2023-12-05T16:11:41.334Z,95.37
2023-12-05T16:14:07.780Z,95.14
2023-12-05T16:16:34.264Z,94.70
2023-12-05T16:19:00.745Z,94.79
2023-12-05T16:21:27.281Z,94.87
2023-12-05T16:23:53.740Z,94.98
2023-12-05T16:26:20.137Z,94.87
2023-12-05T16:28:46.493Z,94.33
2023-12-05T16:31:12.975Z,94.32
2023-12-05T16:33:39.784Z,94.02
2023-12-05T16:36:09.243Z,93.86
2023-12-05T16:38:35.649Z,93.68
2023-12-05T16:41:01.949Z,93.41
2023-12-05T16:43:28.347Z,93.48
2023-12-05T16:45:54.760Z,93.24
2023-12-05T16:48:21.303Z,93.58
2023-12-05T16:50:47.764Z,93.39
2023-12-05T16:53:14.271Z,93.32
2023-12-05T16:55:40.939Z,93.09
2023-12-05T16:58:07.403Z,93.22
2023-12-05T17:00:34.011Z,93.25
2023-12-05T17:03:00.818Z,93.38
2023-12-05T17:05:27.263Z,93.55
2023-12-05T17:07:53.723Z,93.29
2023-12-05T17:10:20.276Z,93.45
2023-12-05T17:12:46.783Z,93.24
2023-12-05T17:15:13.298Z,93.38
2023-12-05T17:17:40.197Z,93.17
2023-12-05T17:20:08.518Z,93.22
2023-12-05T17:22:35.256Z,93.23
2023-12-05T17:25:01.909Z,93.34
2023-12-05T17:27:28.621Z,93.06
2023-12-05T17:29:56.492Z,93.18
2023-12-05T17:32:27.918Z,93.08
2023-12-05T17:34:56.089Z,93.31
2023-12-05T17:37:23.088Z,93.32
2023-12-05T17:39:50.024Z,93.24
2023-12-05T17:42:16.530Z,93.30
2023-12-05T17:44:43.146Z,93.25
2023-12-05T17:47:09.581Z,93.08
2023-12-05T17:49:35.928Z,93.47
2023-12-05T17:52:02.428Z,93.46
2023-12-05T17:54:28.976Z,93.07
2023-12-05T17:56:55.476Z,93.22
2023-12-05T17:59:24.303Z,92.75
2023-12-05T18:01:52.286Z,92.58
2023-12-05T18:04:19.061Z,92.57
2023-12-05T18:06:46.191Z,92.95
2023-12-05T18:09:16.432Z,93.07
2023-12-05T18:11:45.694Z,92.97
2023-12-05T18:14:13.456Z,93.23
2023-12-05T18:16:39.811Z,93.23
2023-12-05T18:19:08.108Z,93.18
2023-12-05T18:21:34.654Z,93.16
2023-12-05T18:24:01.839Z,93.33
2023-12-05T18:26:29.169Z,93.33
2023-12-05T18:28:56.616Z,93.25
2023-12-05T18:31:23.246Z,93.35
2023-12-05T18:33:51.515Z,93.23
2023-12-05T18:36:18.073Z,93.38
2023-12-05T18:38:44.601Z,93.48
2023-12-05T18:41:11.259Z,93.69
2023-12-05T18:43:39.059Z,93.78
2023-12-05T18:46:06.266Z,93.22
2023-12-05T18:48:33.114Z,92.51
2023-12-05T18:51:00.542Z,92.24
2023-12-05T18:53:30.907Z,92.53
2023-12-05T18:56:01.024Z,92.87
2023-12-05T18:58:27.957Z,92.66
2023-12-05T19:00:54.406Z,92.92
2023-12-05T19:03:20.970Z,92.86
2023-12-05T19:05:47.644Z,93.13
2023-12-05T19:08:14.694Z,93.21
2023-12-05T19:10:41.164Z,93.24
2023-12-05T19:13:08.540Z,92.96
2023-12-05T19:15:35.033Z,93.08
2023-12-05T19:18:02.372Z,92.84
2023-12-05T19:20:31.466Z,92.67
2023-12-05T19:22:58.664Z,92.59
2023-12-05T19:25:25.168Z,92.36
2023-12-05T19:27:53.782Z,92.18
2023-12-05T19:30:21.083Z,92.35
2023-12-05T19:32:47.561Z,92.44
2023-12-05T19:35:15.126Z,92.26
2023-12-05T19:37:41.927Z,92.01
2023-12-05T19:40:08.692Z,91.92
2023-12-05T19:42:35.610Z,91.47
2023-12-05T19:45:02.090Z,91.32
2023-12-05T19:47:28.577Z,91.47
2023-12-05T19:49:54.990Z,91.46
2023-12-05T19:52:21.522Z,91.69
2023-12-05T19:54:47.937Z,91.72
2023-12-05T19:57:14.342Z,91.97
2023-12-05T19:59:45.438Z,91.74
2023-12-05T20:02:13.318Z,91.67
2023-12-05T20:04:41.195Z,91.63
2023-12-05T20:07:08.293Z,91.71
2023-12-05T20:09:34.996Z,91.60
2023-12-05T20:12:01.749Z,91.44
2023-12-05T20:14:28.212Z,91.44
2023-12-05T20:16:54.646Z,91.44
2023-12-05T20:19:21.822Z,91.71
2023-12-05T20:21:48.972Z,91.87
2023-12-05T20:24:15.496Z,91.80
2023-12-05T20:26:42.020Z,91.89
2023-12-05T20:29:08.399Z,91.84
2023-12-05T20:31:35.024Z,91.49
2023-12-05T20:34:01.558Z,91.31
2023-12-05T20:36:27.997Z,91.31
2023-12-05T20:38:54.451Z,91.33
2023-12-05T20:41:20.955Z,91.34
2023-12-05T20:43:47.934Z,91.37
2023-12-05T20:46:15.539Z,91.77
2023-12-05T20:48:43.929Z,91.87
2023-12-05T20:51:10.389Z,92.13
2023-12-05T20:53:36.915Z,92.37
2023-12-05T20:56:03.573Z,92.22
2023-12-05T20:58:30.508Z,92.73
2023-12-05T21:00:57.071Z,93.37
2023-12-05T21:03:23.605Z,93.40
2023-12-05T21:05:50.005Z,93.67
2023-12-05T21:08:17.314Z,93.72
2023-12-05T21:10:44.060Z,93.56
2023-12-05T21:13:12.121Z,93.59
2023-12-05T21:15:38.781Z,93.82
2023-12-05T21:18:05.347Z,93.96
2023-12-05T21:20:31.754Z,93.81
2023-12-05T21:22:58.065Z,94.04
2023-12-05T21:25:24.564Z,93.94
2023-12-05T21:27:51.176Z,93.87
2023-12-05T21:30:18.322Z,94.01
2023-12-05T21:32:45.592Z,93.94
2023-12-05T21:35:15.208Z,94.29
2023-12-05T21:37:44.490Z,94.11
2023-12-05T21:40:13.194Z,94.04
2023-12-05T21:42:39.716Z,93.79
2023-12-05T21:45:06.815Z,94.23
2023-12-05T21:47:33.381Z,93.96
2023-12-05T21:49:59.924Z,94.29
2023-12-05T21:52:26.337Z,94.05
2023-12-05T21:57:19.326Z,93.68
2023-12-05T21:59:45.819Z,93.63
2023-12-05T22:02:14.501Z,93.90
2023-12-05T22:04:40.976Z,94.22
2023-12-05T22:07:07.494Z,94.32
2023-12-05T22:09:34.003Z,94.64
2023-12-05T22:12:00.501Z,94.68
2023-12-05T22:14:26.942Z,94.92
2023-12-05T22:16:53.685Z,95.16
2023-12-05T22:19:20.204Z,94.86
2023-12-05T22:21:46.780Z,94.90
2023-12-05T22:24:20.728Z,94.99
2023-12-05T22:26:55.764Z,95.29
2023-12-05T22:29:22.136Z,95.55
2023-12-05T22:31:48.607Z,95.64
2023-12-05T22:34:18.078Z,95.67
2023-12-05T22:36:45.225Z,95.55
2023-12-05T22:39:11.823Z,95.68
2023-12-05T22:41:42.478Z,95.69
2023-12-05T22:44:08.943Z,95.66
2023-12-05T22:46:35.307Z,95.86
2023-12-05T22:49:01.874Z,95.86
2023-12-05T22:51:28.480Z,95.68
2023-12-05T22:53:54.883Z,95.81
2023-12-05T22:56:21.190Z,95.85
2023-12-05T22:58:47.592Z,96.07
2023-12-05T23:01:14.201Z,96.40
2023-12-05T23:03:41.920Z,96.42
2023-12-05T23:06:08.662Z,96.38
2023-12-05T23:08:35.089Z,96.66
2023-12-05T23:11:01.464Z,96.56
2023-12-05T23:13:27.868Z,96.74
2023-12-05T23:15:56.103Z,96.97
2023-12-05T23:18:22.522Z,97.11
2023-12-05T23:20:48.832Z,97.07
2023-12-05T23:23:16.426Z,97.08
2023-12-05T23:25:42.880Z,97.22
2023-12-05T23:28:15.460Z,97.34
2023-12-05T23:30:45.402Z,97.16
2023-12-05T23:33:11.839Z,97.25
2023-12-05T23:35:38.313Z,97.08
2023-12-05T23:38:04.831Z,97.05
2023-12-05T23:40:31.281Z,97.18
2023-12-05T23:42:57.951Z,97.29
2023-12-05T23:45:24.316Z,97.15
2023-12-05T23:47:51.010Z,97.40
2023-12-05T23:50:17.552Z,97.39
2023-12-05T23:52:44.019Z,97.17
2023-12-05T23:55:10.870Z,97.15
2023-12-05T23:57:37.375Z,96.78
